In Rescue
 
Open Full Screen Window  High Contrast Mode
Wind Gusting 14 knots
11
April 03, 2020 12:20 AM CDT
Weather Information
Wind Direction
  340 °
Wind Speed
  11 kt (13 mph)
Wind Gust
  14 kt (16 mph)
Altimeter
30.08 in
Visibility
10 SM
Temperature
-06° C
21° F
Dewpoint
-07° C
19° F
Humidity
93%
1hr Rain Fall
00.00 in.
24hr Rain Fall
00.07 in.
Sky Condition
Missing
VFR

METAR KPQN 030520Z 34011G14KT 10SM M06/M07 A3008 RMK AO2

FAA Disclaimer: The data displayed is for advisory purposes only and is not to be used for flight planning or operations.
Missing Cloud Data